Time;durP1;ratioP1;P1;durP2;ratioP2;P2;SDS_P1;SDS_P2;PMS_P1;PMS_P2;Temp;Humidity;BMP_temperature;BMP_pressure;BME280_temperature;BME280_humidity;BME280_pressure;Samples;Min_cycle;Max_cycle;Signal;HPM_P1;HPM_P2
2023/12/24 00:01:30;;;;;;;0.30;0.30;;;;;;;;;;4953414;28;20135;-90
2023/12/24 00:03:56;;;;;;;0.28;0.25;;;;;;;;;;4952412;28;20788;-89
2023/12/24 00:06:21;;;;;;;1.45;0.40;;;;;;;;;;4952428;29;20043;-90
2023/12/24 00:08:47;;;;;;;0.40;0.30;;;;;;;;;;4952290;28;20031;-89
2023/12/24 00:11:12;;;;;;;0.45;0.25;;;;;;;;;;4952501;28;20042;-89
2023/12/24 00:13:38;;;;;;;0.30;0.20;;;;;;;;;;4951942;28;20031;-90
2023/12/24 00:16:03;;;;;;;1.65;0.38;;;;;;;;;;4952135;28;20434;-90
2023/12/24 00:18:29;;;;;;;0.40;0.30;;;;;;;;;;4951999;28;20426;-89
2023/12/24 00:20:55;;;;;;;0.40;0.40;;;;;;;;;;4954413;28;20417;-89
2023/12/24 00:23:21;;;;;;;0.30;0.30;;;;;;;;;;4949553;29;20409;-89
2023/12/24 00:25:46;;;;;;;0.20;0.20;;;;;;;;;;4956235;28;20035;-90
2023/12/24 00:28:12;;;;;;;0.68;0.30;;;;;;;;;;4959617;28;20038;-89
2023/12/24 00:30:37;;;;;;;0.28;0.20;;;;;;;;;;4955672;28;20553;-89
2023/12/24 00:33:03;;;;;;;2.85;0.43;;;;;;;;;;4954769;28;20032;-91
2023/12/24 00:35:31;;;;;;;0.30;0.30;;;;;;;;;;4953482;29;20557;-91
2023/12/24 00:37:58;;;;;;;0.40;0.30;;;;;;;;;;4954041;28;20035;-91
2023/12/24 00:40:24;;;;;;;1.48;0.25;;;;;;;;;;4969127;28;20039;-92
2023/12/24 00:42:49;;;;;;;0.82;0.20;;;;;;;;;;4948466;28;20089;-91
2023/12/24 00:45:15;;;;;;;0.32;0.20;;;;;;;;;;4954694;28;20041;-91
2023/12/24 00:47:41;;;;;;;0.20;0.20;;;;;;;;;;4966864;28;20031;-91
2023/12/24 00:50:07;;;;;;;0.20;0.20;;;;;;;;;;4946011;29;20043;-91
2023/12/24 00:52:34;;;;;;;0.30;0.30;;;;;;;;;;4946512;28;20421;-91
2023/12/24 00:54:59;;;;;;;0.32;0.32;;;;;;;;;;4954727;28;20043;-91
2023/12/24 00:57:25;;;;;;;0.85;0.40;;;;;;;;;;4953239;28;20039;-91
2023/12/24 00:59:50;;;;;;;0.10;0.10;;;;;;;;;;4954027;29;20038;-89
2023/12/24 01:02:16;;;;;;;0.22;0.22;;;;;;;;;;4955365;29;20046;-91
2023/12/24 01:04:41;;;;;;;0.52;0.28;;;;;;;;;;4954078;28;20118;-90
2023/12/24 01:07:07;;;;;;;0.68;0.30;;;;;;;;;;4968358;28;20160;-90
2023/12/24 01:09:32;;;;;;;3.75;0.40;;;;;;;;;;4955410;28;20039;-91
2023/12/24 01:11:58;;;;;;;0.68;0.40;;;;;;;;;;4970079;28;20035;-91
2023/12/24 01:14:23;;;;;;;0.47;0.35;;;;;;;;;;4944393;29;20031;-90
2023/12/24 01:16:49;;;;;;;0.65;0.47;;;;;;;;;;4947624;28;20090;-92
2023/12/24 01:19:14;;;;;;;0.30;0.20;;;;;;;;;;4954171;28;20477;-90
2023/12/24 01:21:40;;;;;;;0.50;0.30;;;;;;;;;;4967067;28;20038;-90
2023/12/24 01:24:06;;;;;;;0.13;0.13;;;;;;;;;;4954722;28;20027;-89
2023/12/24 01:26:36;;;;;;;0.50;0.30;;;;;;;;;;4965631;28;20406;-89
2023/12/24 01:29:03;;;;;;;0.47;0.20;;;;;;;;;;4955350;28;20055;-89
2023/12/24 01:31:28;;;;;;;0.40;0.20;;;;;;;;;;4954137;28;20059;-90
2023/12/24 01:33:54;;;;;;;0.25;0.25;;;;;;;;;;4955273;28;20062;-92
2023/12/24 01:36:20;;;;;;;0.28;0.10;;;;;;;;;;4951477;29;20035;-91
2023/12/24 01:38:46;;;;;;;0.70;0.20;;;;;;;;;;4953698;28;20085;-90
2023/12/24 01:41:12;;;;;;;0.28;0.20;;;;;;;;;;4964752;28;20043;-89
2023/12/24 01:43:42;;;;;;;0.20;0.20;;;;;;;;;;4967208;28;20031;-89
2023/12/24 01:46:19;;;;;;;3.10;0.28;;;;;;;;;;4951185;29;20159;-90
2023/12/24 01:48:44;;;;;;;0.73;0.30;;;;;;;;;;4951575;29;20413;-89
2023/12/24 01:51:10;;;;;;;0.10;0.10;;;;;;;;;;4953053;29;20572;-90
2023/12/24 01:53:36;;;;;;;0.35;0.22;;;;;;;;;;4966439;28;20035;-90
2023/12/24 01:56:04;;;;;;;0.25;0.20;;;;;;;;;;4966237;28;20027;-91
2023/12/24 01:58:29;;;;;;;0.40;0.10;;;;;;;;;;4953048;29;20023;-90
2023/12/24 02:00:56;;;;;;;0.20;0.20;;;;;;;;;;4953078;28;20023;-89
2023/12/24 02:03:23;;;;;;;0.20;0.20;;;;;;;;;;4953390;28;20030;-89
2023/12/24 02:05:50;;;;;;;0.32;0.20;;;;;;;;;;4954913;28;20034;-91
2023/12/24 02:08:18;;;;;;;0.17;0.17;;;;;;;;;;4967420;28;20043;-90
2023/12/24 02:10:45;;;;;;;0.20;0.20;;;;;;;;;;4955237;28;20166;-92
2023/12/24 02:13:12;;;;;;;0.28;0.20;;;;;;;;;;4969120;28;20078;-91
2023/12/24 02:15:38;;;;;;;0.20;0.20;;;;;;;;;;4945416;28;20149;-91
2023/12/24 02:18:06;;;;;;;0.15;0.13;;;;;;;;;;4951741;29;20079;-91
2023/12/24 02:20:32;;;;;;;0.30;0.10;;;;;;;;;;4951777;29;20118;-89
2023/12/24 02:22:57;;;;;;;0.30;0.20;;;;;;;;;;4966627;28;20039;-91
2023/12/24 02:25:23;;;;;;;0.20;0.20;;;;;;;;;;4966923;28;20027;-91
2023/12/24 02:27:55;;;;;;;0.45;0.17;;;;;;;;;;4953240;28;20565;-91
2023/12/24 02:30:24;;;;;;;0.32;0.20;;;;;;;;;;4952483;29;20094;-91
2023/12/24 02:32:55;;;;;;;0.17;0.17;;;;;;;;;;4943053;28;20063;-90
2023/12/24 02:35:21;;;;;;;0.17;0.17;;;;;;;;;;4960223;28;20031;-90
2023/12/24 02:37:47;;;;;;;1.00;0.43;;;;;;;;;;4953640;28;20114;-88
2023/12/24 02:40:12;;;;;;;0.20;0.20;;;;;;;;;;4953323;28;20077;-91
2023/12/24 02:42:38;;;;;;;0.47;0.30;;;;;;;;;;4952156;28;20056;-91
2023/12/24 02:45:05;;;;;;;0.10;0.10;;;;;;;;;;4952001;28;20504;-90
2023/12/24 02:47:30;;;;;;;0.13;0.13;;;;;;;;;;4953585;28;20039;-90
2023/12/24 02:49:56;;;;;;;0.30;0.25;;;;;;;;;;4953084;28;20031;-90
2023/12/24 02:52:21;;;;;;;0.80;0.30;;;;;;;;;;4967787;28;20101;-90
2023/12/24 02:54:47;;;;;;;0.25;0.25;;;;;;;;;;4953269;28;20031;-89
2023/12/24 02:57:12;;;;;;;0.20;0.20;;;;;;;;;;4965097;28;20387;-90
2023/12/24 02:59:38;;;;;;;0.20;0.20;;;;;;;;;;4951240;29;20062;-91
2023/12/24 03:02:03;;;;;;;0.50;0.30;;;;;;;;;;4942043;29;20034;-90
2023/12/24 03:04:29;;;;;;;0.20;0.20;;;;;;;;;;4945829;28;20557;-90
2023/12/24 03:06:55;;;;;;;0.75;0.20;;;;;;;;;;4966960;28;20046;-89
2023/12/24 03:09:20;;;;;;;0.28;0.20;;;;;;;;;;4951033;29;20139;-89
2023/12/24 03:11:46;;;;;;;0.20;0.20;;;;;;;;;;4953805;28;20106;-90
2023/12/24 03:14:11;;;;;;;0.20;0.20;;;;;;;;;;4951867;29;20422;-90
2023/12/24 03:16:37;;;;;;;0.10;0.10;;;;;;;;;;4952981;28;20023;-89
2023/12/24 03:19:02;;;;;;;0.20;0.10;;;;;;;;;;4953003;28;20035;-90
2023/12/24 03:21:28;;;;;;;0.15;0.15;;;;;;;;;;4944996;29;20035;-90
2023/12/24 03:23:53;;;;;;;0.20;0.20;;;;;;;;;;4964865;28;20031;-90
2023/12/24 03:26:23;;;;;;;0.30;0.17;;;;;;;;;;4952593;28;20035;-89
2023/12/24 03:28:49;;;;;;;0.25;0.17;;;;;;;;;;4951495;28;20441;-90
2023/12/24 03:31:15;;;;;;;0.20;0.20;;;;;;;;;;4966263;28;20131;-89
2023/12/24 03:33:42;;;;;;;0.28;0.17;;;;;;;;;;4950907;29;20062;-89
2023/12/24 03:36:09;;;;;;;0.28;0.20;;;;;;;;;;4948153;28;20087;-90
2023/12/24 03:38:35;;;;;;;0.35;0.20;;;;;;;;;;4942625;28;20122;-89
2023/12/24 03:41:00;;;;;;;2.00;0.10;;;;;;;;;;4944702;29;20068;-89
2023/12/24 03:43:26;;;;;;;0.30;0.30;;;;;;;;;;4951588;28;20664;-89
2023/12/24 03:45:52;;;;;;;0.43;0.20;;;;;;;;;;4951478;29;20023;-89
2023/12/24 03:48:17;;;;;;;0.32;0.30;;;;;;;;;;4951095;29;20043;-91
2023/12/24 03:50:43;;;;;;;0.28;0.20;;;;;;;;;;4950609;28;20561;-90
2023/12/24 03:53:09;;;;;;;0.30;0.30;;;;;;;;;;4949122;28;20035;-90
2023/12/24 03:55:35;;;;;;;0.47;0.30;;;;;;;;;;4950021;28;20039;-90
2023/12/24 03:58:00;;;;;;;0.50;0.20;;;;;;;;;;4954028;28;20101;-91
2023/12/24 04:00:26;;;;;;;0.13;0.13;;;;;;;;;;4952717;29;20035;-90
2023/12/24 04:02:54;;;;;;;0.10;0.10;;;;;;;;;;4955951;28;20031;-89
2023/12/24 04:05:19;;;;;;;0.20;0.20;;;;;;;;;;4968027;28;20074;-90
2023/12/24 04:07:45;;;;;;;1.15;0.30;;;;;;;;;;4956374;28;20059;-89
2023/12/24 04:10:10;;;;;;;0.30;0.30;;;;;;;;;;4955789;28;20042;-89
2023/12/24 04:12:36;;;;;;;0.28;0.20;;;;;;;;;;4955143;28;20105;-91
2023/12/24 04:15:02;;;;;;;0.15;0.15;;;;;;;;;;4941210;28;20043;-90
2023/12/24 04:17:27;;;;;;;0.13;0.13;;;;;;;;;;4953373;29;20054;-90
2023/12/24 04:19:53;;;;;;;0.20;0.20;;;;;;;;;;4956023;28;20401;-88
2023/12/24 04:22:19;;;;;;;0.28;0.20;;;;;;;;;;4955826;28;20419;-89
2023/12/24 04:24:44;;;;;;;0.17;0.13;;;;;;;;;;4970943;28;20035;-90
2023/12/24 04:27:11;;;;;;;0.20;0.20;;;;;;;;;;4966349;28;20130;-90
2023/12/24 04:29:36;;;;;;;0.25;0.20;;;;;;;;;;4953761;29;20090;-90
2023/12/24 04:32:02;;;;;;;0.20;0.20;;;;;;;;;;4954099;28;20035;-90
2023/12/24 04:34:28;;;;;;;0.50;0.32;;;;;;;;;;4949961;28;20027;-90
2023/12/24 04:36:54;;;;;;;2.08;0.20;;;;;;;;;;4941475;28;20442;-90
2023/12/24 04:39:19;;;;;;;0.28;0.20;;;;;;;;;;4954371;28;20059;-90
2023/12/24 04:41:45;;;;;;;0.20;0.20;;;;;;;;;;4951896;28;20452;-91
2023/12/24 04:44:11;;;;;;;0.25;0.20;;;;;;;;;;4970466;28;20035;-91
2023/12/24 04:46:41;;;;;;;0.40;0.40;;;;;;;;;;4970633;28;20129;-90
2023/12/24 04:49:07;;;;;;;0.30;0.17;;;;;;;;;;4956711;28;20031;-91
2023/12/24 04:51:32;;;;;;;0.20;0.20;;;;;;;;;;4942744;28;20031;-90
2023/12/24 04:53:58;;;;;;;0.75;0.35;;;;;;;;;;4955707;28;20035;-90
2023/12/24 04:56:23;;;;;;;0.13;0.13;;;;;;;;;;4970116;28;20031;-90
2023/12/24 04:58:51;;;;;;;2.70;0.38;;;;;;;;;;4955497;28;20118;-90
2023/12/24 05:01:17;;;;;;;0.30;0.30;;;;;;;;;;4947292;28;20038;-92
2023/12/24 05:03:43;;;;;;;0.30;0.30;;;;;;;;;;4937095;29;20036;-91
2023/12/24 05:06:09;;;;;;;0.98;0.28;;;;;;;;;;4951682;29;20027;-90
2023/12/24 05:08:35;;;;;;;0.30;0.20;;;;;;;;;;4953633;29;20035;-91
2023/12/24 05:11:08;;;;;;;0.20;0.20;;;;;;;;;;4955824;28;20039;-90
2023/12/24 05:13:35;;;;;;;0.55;0.40;;;;;;;;;;4938753;29;20383;-91
2023/12/24 05:16:02;;;;;;;0.30;0.17;;;;;;;;;;4951892;29;20512;-91
2023/12/24 05:18:28;;;;;;;0.47;0.30;;;;;;;;;;4951459;29;20441;-89
2023/12/24 05:20:53;;;;;;;0.77;0.30;;;;;;;;;;4950657;29;20027;-89
2023/12/24 05:23:21;;;;;;;0.30;0.30;;;;;;;;;;4943470;29;20035;-90
2023/12/24 05:25:47;;;;;;;0.43;0.30;;;;;;;;;;4951314;29;20121;-88
2023/12/24 05:28:13;;;;;;;0.30;0.20;;;;;;;;;;4954120;28;20110;-87
2023/12/24 05:30:38;;;;;;;0.20;0.20;;;;;;;;;;4953298;28;20046;-89
2023/12/24 05:33:04;;;;;;;0.38;0.35;;;;;;;;;;4954551;28;20065;-89
2023/12/24 05:35:29;;;;;;;0.98;0.20;;;;;;;;;;4954601;28;20023;-89
2023/12/24 05:37:55;;;;;;;0.40;0.40;;;;;;;;;;4969803;28;20061;-90
2023/12/24 05:40:20;;;;;;;0.40;0.40;;;;;;;;;;4948528;28;20031;-89
2023/12/24 05:42:45;;;;;;;0.90;0.28;;;;;;;;;;4953380;29;20034;-89
2023/12/24 05:45:11;;;;;;;0.68;0.30;;;;;;;;;;4954326;28;20055;-91
2023/12/24 05:47:37;;;;;;;0.20;0.20;;;;;;;;;;4952775;28;20054;-91
2023/12/24 05:50:07;;;;;;;0.40;0.38;;;;;;;;;;4952960;28;20023;-91
2023/12/24 05:52:33;;;;;;;0.20;0.20;;;;;;;;;;4954129;28;20042;-90
2023/12/24 05:54:58;;;;;;;0.52;0.32;;;;;;;;;;4954460;28;20043;-90
2023/12/24 05:57:24;;;;;;;0.32;0.20;;;;;;;;;;4954968;28;20041;-90
2023/12/24 05:59:49;;;;;;;0.95;0.40;;;;;;;;;;4963542;28;20039;-89
2023/12/24 06:02:17;;;;;;;0.57;0.50;;;;;;;;;;4968387;28;20401;-89
2023/12/24 06:04:43;;;;;;;0.35;0.20;;;;;;;;;;4953723;29;20035;-90
2023/12/24 06:07:08;;;;;;;1.13;0.60;;;;;;;;;;4954029;28;20051;-91
2023/12/24 06:09:34;;;;;;;1.85;0.90;;;;;;;;;;4952876;29;20553;-90
2023/12/24 06:11:59;;;;;;;1.58;1.10;;;;;;;;;;4954021;28;20082;-90
2023/12/24 06:14:24;;;;;;;1.35;0.80;;;;;;;;;;4953877;28;20035;-90
2023/12/24 06:16:50;;;;;;;1.17;0.82;;;;;;;;;;4953969;28;20016;-90
2023/12/24 06:19:15;;;;;;;1.17;0.80;;;;;;;;;;4954666;28;20430;-89
2023/12/24 06:21:41;;;;;;;1.05;0.63;;;;;;;;;;4953242;28;20133;-91
2023/12/24 06:24:06;;;;;;;1.08;0.50;;;;;;;;;;4953877;28;20469;-90
2023/12/24 06:26:33;;;;;;;1.00;0.68;;;;;;;;;;4947711;28;20062;-92
2023/12/24 06:28:59;;;;;;;0.73;0.50;;;;;;;;;;4953756;28;20413;-91
2023/12/24 06:31:25;;;;;;;0.28;0.28;;;;;;;;;;4953654;28;20041;-91
2023/12/24 06:33:51;;;;;;;0.73;0.40;;;;;;;;;;4953066;28;20489;-90
2023/12/24 06:36:17;;;;;;;0.30;0.30;;;;;;;;;;4967153;28;20501;-90
2023/12/24 06:38:43;;;;;;;0.38;0.30;;;;;;;;;;4954403;28;20019;-89
2023/12/24 06:41:08;;;;;;;0.52;0.50;;;;;;;;;;4952789;28;20031;-90
2023/12/24 06:43:34;;;;;;;0.32;0.32;;;;;;;;;;4946936;28;20038;-89
2023/12/24 06:45:59;;;;;;;0.32;0.30;;;;;;;;;;4966371;28;20023;-89
2023/12/24 06:48:25;;;;;;;0.40;0.30;;;;;;;;;;4954105;28;20046;-91
2023/12/24 06:50:50;;;;;;;0.40;0.40;;;;;;;;;;4953240;28;20106;-91
2023/12/24 06:53:17;;;;;;;0.52;0.47;;;;;;;;;;4948516;28;20043;-91
2023/12/24 06:55:42;;;;;;;0.35;0.35;;;;;;;;;;4953488;28;20136;-89
2023/12/24 06:58:07;;;;;;;0.68;0.40;;;;;;;;;;4953006;28;20422;-91
2023/12/24 07:00:33;;;;;;;0.40;0.30;;;;;;;;;;4968707;28;20042;-91
2023/12/24 07:02:59;;;;;;;0.82;0.40;;;;;;;;;;4953974;28;20382;-91
2023/12/24 07:05:25;;;;;;;0.40;0.40;;;;;;;;;;4966035;28;20030;-89
2023/12/24 07:07:50;;;;;;;0.45;0.40;;;;;;;;;;4953739;28;20035;-90
2023/12/24 07:10:16;;;;;;;0.60;0.30;;;;;;;;;;4950818;28;20044;-90
2023/12/24 07:12:41;;;;;;;0.55;0.47;;;;;;;;;;4951581;28;20031;-90
2023/12/24 07:15:07;;;;;;;1.92;0.45;;;;;;;;;;4952744;28;20449;-90
2023/12/24 07:17:33;;;;;;;0.47;0.40;;;;;;;;;;4953514;28;20035;-90
2023/12/24 07:20:00;;;;;;;0.40;0.30;;;;;;;;;;4953356;28;20133;-90
2023/12/24 07:22:25;;;;;;;0.40;0.40;;;;;;;;;;4952064;29;20658;-90
2023/12/24 07:24:51;;;;;;;0.93;0.40;;;;;;;;;;4962773;28;20099;-90
2023/12/24 07:27:16;;;;;;;1.13;0.30;;;;;;;;;;4954761;28;20497;-91
2023/12/24 07:29:43;;;;;;;0.40;0.40;;;;;;;;;;4955888;28;20042;-89
2023/12/24 07:32:09;;;;;;;1.05;0.60;;;;;;;;;;4953521;29;20494;-89
2023/12/24 07:34:34;;;;;;;0.70;0.60;;;;;;;;;;4955593;28;20035;-90
2023/12/24 07:37:00;;;;;;;0.30;0.30;;;;;;;;;;4948277;28;20078;-90
2023/12/24 07:39:25;;;;;;;1.05;0.50;;;;;;;;;;4955145;28;20402;-89
2023/12/24 07:41:51;;;;;;;0.50;0.45;;;;;;;;;;4955007;28;20042;-90
2023/12/24 07:44:17;;;;;;;0.30;0.30;;;;;;;;;;4954642;29;20039;-90
2023/12/24 07:46:44;;;;;;;0.90;0.70;;;;;;;;;;4948169;28;20626;-89
2023/12/24 07:49:09;;;;;;;0.63;0.50;;;;;;;;;;4952458;29;20039;-90
2023/12/24 07:51:35;;;;;;;0.98;0.52;;;;;;;;;;4956328;28;20043;-90
2023/12/24 07:54:03;;;;;;;0.50;0.50;;;;;;;;;;4955888;28;20034;-90
2023/12/24 07:56:29;;;;;;;0.75;0.50;;;;;;;;;;4967254;28;20036;-89
2023/12/24 07:58:55;;;;;;;0.82;0.60;;;;;;;;;;4956982;28;20062;-92
2023/12/24 08:01:21;;;;;;;0.60;0.50;;;;;;;;;;4980360;28;20051;-91
2023/12/24 08:03:46;;;;;;;0.60;0.60;;;;;;;;;;4966247;28;20036;-90
2023/12/24 08:06:12;;;;;;;0.73;0.50;;;;;;;;;;4950055;28;20046;-90
2023/12/24 08:08:37;;;;;;;0.57;0.50;;;;;;;;;;4955570;29;20047;-90
2023/12/24 08:11:03;;;;;;;0.45;0.40;;;;;;;;;;4966983;28;20027;-90
2023/12/24 08:13:29;;;;;;;0.82;0.60;;;;;;;;;;4955825;28;20472;-89
2023/12/24 08:15:54;;;;;;;1.48;0.60;;;;;;;;;;4955802;28;20493;-87
2023/12/24 08:18:19;;;;;;;0.82;0.50;;;;;;;;;;4955012;28;20024;-86
2023/12/24 08:20:45;;;;;;;1.45;0.60;;;;;;;;;;4955008;28;20035;-91
2023/12/24 08:23:11;;;;;;;0.68;0.50;;;;;;;;;;4953255;28;20039;-89
2023/12/24 08:25:36;;;;;;;4.28;0.90;;;;;;;;;;4955286;28;20070;-91
2023/12/24 08:28:03;;;;;;;1.05;0.60;;;;;;;;;;4965453;28;20034;-90
2023/12/24 08:30:29;;;;;;;0.70;0.50;;;;;;;;;;4952980;29;20034;-90
2023/12/24 08:32:54;;;;;;;1.02;0.60;;;;;;;;;;4953869;28;20039;-91
2023/12/24 08:35:20;;;;;;;0.50;0.40;;;;;;;;;;4953086;28;20027;-90
2023/12/24 08:37:46;;;;;;;3.30;0.65;;;;;;;;;;4955127;28;20109;-90
2023/12/24 08:40:12;;;;;;;0.50;0.40;;;;;;;;;;4953980;28;20114;-89
2023/12/24 08:42:38;;;;;;;0.70;0.50;;;;;;;;;;4954121;28;20049;-90
2023/12/24 08:45:04;;;;;;;0.77;0.57;;;;;;;;;;4966003;28;20657;-90
2023/12/24 08:47:29;;;;;;;1.27;0.88;;;;;;;;;;4955117;29;20034;-90
2023/12/24 08:49:56;;;;;;;3.55;1.55;;;;;;;;;;4954543;28;20091;-92
2023/12/24 08:52:22;;;;;;;2.88;1.05;;;;;;;;;;4954955;28;20046;-89
2023/12/24 08:54:47;;;;;;;3.33;1.30;;;;;;;;;;4953883;28;20118;-88
2023/12/24 08:57:13;;;;;;;2.30;1.42;;;;;;;;;;4955303;28;20031;-91
2023/12/24 08:59:39;;;;;;;3.90;1.65;;;;;;;;;;4954821;28;20034;-91
2023/12/24 09:02:04;;;;;;;1.75;1.10;;;;;;;;;;4944618;29;20046;-91
2023/12/24 09:04:30;;;;;;;2.42;1.17;;;;;;;;;;4953820;28;20516;-91
2023/12/24 09:06:55;;;;;;;2.80;1.55;;;;;;;;;;4954974;28;20308;-91
2023/12/24 09:09:21;;;;;;;2.38;1.33;;;;;;;;;;4953692;28;20040;-91
2023/12/24 09:11:47;;;;;;;6.43;3.30;;;;;;;;;;4958256;28;20039;-90
2023/12/24 09:14:13;;;;;;;3.78;2.22;;;;;;;;;;4954557;28;20070;-90
2023/12/24 09:16:38;;;;;;;2.25;1.20;;;;;;;;;;4954010;29;20082;-90
2023/12/24 09:19:04;;;;;;;0.93;0.63;;;;;;;;;;4949867;28;20031;-90
2023/12/24 09:21:29;;;;;;;1.88;0.80;;;;;;;;;;4954911;28;20062;-90
2023/12/24 09:23:56;;;;;;;12.68;8.13;;;;;;;;;;4969101;28;20070;-90
2023/12/24 09:26:22;;;;;;;1.88;1.00;;;;;;;;;;4953104;28;20122;-89
2023/12/24 09:28:47;;;;;;;2.30;1.00;;;;;;;;;;4952725;28;20114;-89
2023/12/24 09:31:12;;;;;;;5.07;2.25;;;;;;;;;;4954257;28;20039;-90
2023/12/24 09:33:38;;;;;;;2.30;1.10;;;;;;;;;;4947437;29;20038;-88
2023/12/24 09:36:07;;;;;;;7.50;3.80;;;;;;;;;;4954934;28;20090;-90
2023/12/24 09:38:33;;;;;;;1.05;0.73;;;;;;;;;;4945474;29;20028;-90
2023/12/24 09:40:59;;;;;;;1.95;0.85;;;;;;;;;;4954029;28;20541;-92
2023/12/24 09:43:29;;;;;;;1.02;0.90;;;;;;;;;;4953892;28;20139;-91
2023/12/24 09:45:54;;;;;;;1.58;0.60;;;;;;;;;;4955628;28;20077;-90
2023/12/24 09:48:20;;;;;;;0.90;0.70;;;;;;;;;;4947166;28;20449;-90
2023/12/24 09:50:45;;;;;;;0.63;0.60;;;;;;;;;;4945847;28;20031;-90
2023/12/24 09:53:10;;;;;;;0.40;0.30;;;;;;;;;;4953986;28;20039;-90
2023/12/24 09:55:36;;;;;;;0.77;0.63;;;;;;;;;;4952811;28;20523;-89
2023/12/24 09:58:01;;;;;;;1.42;0.75;;;;;;;;;;4953203;28;20110;-88
2023/12/24 10:00:27;;;;;;;2.20;1.20;;;;;;;;;;4953158;28;20078;-89
2023/12/24 10:02:52;;;;;;;5.70;2.80;;;;;;;;;;4953645;28;20521;-89
2023/12/24 10:05:18;;;;;;;5.55;2.65;;;;;;;;;;4953806;28;20093;-89
2023/12/24 10:07:45;;;;;;;3.15;2.00;;;;;;;;;;4953714;28;20039;-89
2023/12/24 10:10:12;;;;;;;4.60;2.90;;;;;;;;;;4948478;29;20054;-88
2023/12/24 10:12:37;;;;;;;3.55;2.30;;;;;;;;;;4952616;28;20043;-89
2023/12/24 10:15:03;;;;;;;3.72;2.50;;;;;;;;;;4952195;28;20065;-88
2023/12/24 10:17:30;;;;;;;3.80;1.80;;;;;;;;;;4965747;28;20019;-88
2023/12/24 10:19:56;;;;;;;3.78;1.60;;;;;;;;;;4966323;28;20027;-90
2023/12/24 10:22:23;;;;;;;4.28;1.75;;;;;;;;;;4951622;28;20027;-89
2023/12/24 10:24:49;;;;;;;5.47;2.90;;;;;;;;;;4953575;28;20031;-89
2023/12/24 10:27:15;;;;;;;3.67;2.08;;;;;;;;;;4951693;28;20727;-89
2023/12/24 10:29:42;;;;;;;3.50;2.10;;;;;;;;;;4954339;28;20047;-89
2023/12/24 10:32:11;;;;;;;3.92;1.45;;;;;;;;;;4953588;28;20035;-88
2023/12/24 10:34:38;;;;;;;3.22;1.52;;;;;;;;;;4953245;28;20062;-89
2023/12/24 10:37:35;;;;;;;2.55;1.60;;;;;;;;;;4968085;28;20035;-90
2023/12/24 10:40:09;;;;;;;5.95;1.30;;;;;;;;;;4953912;28;20570;-89
2023/12/24 10:42:36;;;;;;;1.48;1.10;;;;;;;;;;4952375;29;20039;-90
2023/12/24 10:45:05;;;;;;;2.13;1.10;;;;;;;;;;4966076;28;20035;-90
2023/12/24 10:47:31;;;;;;;2.17;0.90;;;;;;;;;;4951191;29;20038;-89
2023/12/24 10:49:56;;;;;;;2.25;0.90;;;;;;;;;;4967618;28;20043;-90
2023/12/24 10:52:22;;;;;;;2.70;1.70;;;;;;;;;;4953859;28;20054;-89
2023/12/24 10:54:47;;;;;;;4.07;2.08;;;;;;;;;;4951583;29;20482;-88
2023/12/24 10:57:40;;;;;;;6.15;3.03;;;;;;;;;;4952828;28;20446;-89
2023/12/24 11:00:12;;;;;;;3.42;1.30;;;;;;;;;;4951787;29;20046;-88
2023/12/24 11:02:46;;;;;;;2.67;1.63;;;;;;;;;;4951891;29;20180;-89
2023/12/24 11:05:12;;;;;;;4.88;3.33;;;;;;;;;;4948766;28;20046;-89
2023/12/24 11:07:38;;;;;;;3.92;2.42;;;;;;;;;;4952613;28;20032;-89
2023/12/24 11:10:05;;;;;;;14.88;11.15;;;;;;;;;;4951277;29;20031;-89
2023/12/24 11:12:34;;;;;;;4.43;2.83;;;;;;;;;;4967896;28;20122;-88
2023/12/24 11:15:02;;;;;;;3.55;1.60;;;;;;;;;;4951760;28;20031;-90
2023/12/24 11:17:33;;;;;;;2.30;1.55;;;;;;;;;;4950658;29;20034;-90
2023/12/24 11:20:25;;;;;;;3.47;1.70;;;;;;;;;;4951507;29;20066;-90
2023/12/24 11:23:06;;;;;;;2.60;1.55;;;;;;;;;;4948576;29;20043;-91
2023/12/24 11:25:42;;;;;;;5.13;2.00;;;;;;;;;;4953082;28;20042;-90
2023/12/24 11:28:24;;;;;;;4.03;2.35;;;;;;;;;;4950928;28;20035;-91
2023/12/24 11:30:50;;;;;;;4.28;2.42;;;;;;;;;;4963191;28;20045;-89
2023/12/24 11:33:28;;;;;;;4.97;2.15;;;;;;;;;;4946948;28;20461;-90
2023/12/24 11:35:54;;;;;;;2.92;2.03;;;;;;;;;;4951733;29;20039;-88
2023/12/24 11:38:35;;;;;;;3.80;2.03;;;;;;;;;;4952276;29;20030;-91
2023/12/24 11:41:10;;;;;;;3.83;1.80;;;;;;;;;;4965323;28;20046;-90
2023/12/24 11:43:37;;;;;;;2.40;1.67;;;;;;;;;;4954440;28;20529;-90
2023/12/24 11:46:04;;;;;;;6.53;3.90;;;;;;;;;;4951672;29;20039;-90
2023/12/24 11:48:32;;;;;;;3.78;2.20;;;;;;;;;;4951293;28;20034;-89
2023/12/24 11:51:02;;;;;;;4.38;2.97;;;;;;;;;;4939432;28;20071;-90
2023/12/24 11:53:33;;;;;;;6.63;3.97;;;;;;;;;;4953629;29;20039;-89
2023/12/24 11:56:17;;;;;;;6.75;2.70;;;;;;;;;;4953123;28;20040;-88
2023/12/24 11:58:49;;;;;;;7.00;3.22;;;;;;;;;;4952622;29;20038;-87
2023/12/24 12:01:28;;;;;;;7.72;4.57;;;;;;;;;;4954141;29;20065;-88
2023/12/24 12:03:58;;;;;;;8.23;4.38;;;;;;;;;;4955086;29;20110;-89
2023/12/24 12:06:28;;;;;;;4.10;2.60;;;;;;;;;;4955071;29;20035;-88
2023/12/24 12:08:54;;;;;;;2.83;1.70;;;;;;;;;;4954890;28;20070;-88
2023/12/24 12:11:20;;;;;;;13.65;7.30;;;;;;;;;;4969452;28;20099;-89
2023/12/24 12:13:46;;;;;;;15.05;6.18;;;;;;;;;;4959596;28;20023;-90
2023/12/24 12:16:12;;;;;;;9.05;4.38;;;;;;;;;;4975502;28;20031;-89
2023/12/24 12:18:37;;;;;;;8.88;3.80;;;;;;;;;;4963419;28;20485;-89
2023/12/24 12:21:03;;;;;;;9.13;4.07;;;;;;;;;;4963171;28;20059;-89
2023/12/24 12:23:29;;;;;;;12.85;4.85;;;;;;;;;;4961958;29;20039;-88
2023/12/24 12:25:54;;;;;;;4.38;2.20;;;;;;;;;;4963581;28;20093;-89
2023/12/24 12:28:20;;;;;;;3.53;1.70;;;;;;;;;;4960723;28;20039;-88
2023/12/24 12:30:45;;;;;;;2.67;1.20;;;;;;;;;;4958035;28;20054;-88
2023/12/24 12:33:12;;;;;;;2.03;0.85;;;;;;;;;;4958880;28;20043;-89
2023/12/24 12:35:37;;;;;;;1.50;0.82;;;;;;;;;;4957978;28;20034;-88
2023/12/24 12:38:03;;;;;;;0.93;0.60;;;;;;;;;;4955585;29;20030;-88
2023/12/24 12:40:29;;;;;;;0.70;0.60;;;;;;;;;;4970318;28;20035;-88
2023/12/24 12:42:55;;;;;;;1.02;0.55;;;;;;;;;;4957484;28;20110;-87
2023/12/24 12:45:21;;;;;;;2.58;1.55;;;;;;;;;;4957070;28;20066;-88
2023/12/24 12:47:46;;;;;;;2.00;1.20;;;;;;;;;;4955121;28;20102;-87
2023/12/24 12:50:12;;;;;;;2.08;0.75;;;;;;;;;;4954083;28;20065;-88
2023/12/24 12:52:38;;;;;;;0.77;0.70;;;;;;;;;;4952881;28;20646;-88
2023/12/24 12:55:05;;;;;;;1.00;0.70;;;;;;;;;;4950871;28;20401;-88
2023/12/24 12:57:36;;;;;;;1.52;1.00;;;;;;;;;;4955394;28;20037;-86
2023/12/24 13:00:09;;;;;;;3.88;2.30;;;;;;;;;;4956362;28;20122;-88
2023/12/24 13:02:39;;;;;;;4.18;1.50;;;;;;;;;;4953936;28;20122;-88
2023/12/24 13:05:05;;;;;;;4.88;1.65;;;;;;;;;;4952769;28;20039;-88
2023/12/24 13:07:31;;;;;;;2.83;1.50;;;;;;;;;;4955584;29;20545;-86
2023/12/24 13:09:57;;;;;;;3.45;1.20;;;;;;;;;;4957269;28;20078;-85
2023/12/24 13:12:23;;;;;;;1.55;1.08;;;;;;;;;;4957014;28;20039;-88
2023/12/24 13:14:56;;;;;;;1.77;1.05;;;;;;;;;;4955844;28;20405;-85
2023/12/24 13:17:22;;;;;;;1.80;1.00;;;;;;;;;;4955882;28;20143;-85
2023/12/24 13:19:49;;;;;;;0.70;0.60;;;;;;;;;;4959173;28;20494;-86
2023/12/24 13:22:14;;;;;;;0.50;0.50;;;;;;;;;;4954335;28;20050;-86
2023/12/24 13:24:40;;;;;;;0.80;0.47;;;;;;;;;;4959394;28;20027;-86
2023/12/24 13:27:06;;;;;;;0.85;0.52;;;;;;;;;;4949399;28;20040;-86
2023/12/24 13:29:31;;;;;;;0.47;0.40;;;;;;;;;;4957047;28;20114;-86
2023/12/24 13:31:57;;;;;;;0.70;0.38;;;;;;;;;;4957597;28;20031;-85
2023/12/24 13:34:22;;;;;;;0.50;0.40;;;;;;;;;;4956024;28;20042;-86
2023/12/24 13:36:48;;;;;;;0.32;0.32;;;;;;;;;;4957916;28;20086;-85
2023/12/24 13:39:16;;;;;;;0.40;0.30;;;;;;;;;;4957933;28;20039;-86
2023/12/24 13:41:42;;;;;;;0.22;0.22;;;;;;;;;;4958527;28;20085;-85
2023/12/24 13:44:09;;;;;;;0.32;0.30;;;;;;;;;;4957552;28;20023;-88
2023/12/24 13:46:34;;;;;;;0.35;0.30;;;;;;;;;;4952881;29;20046;-86
2023/12/24 13:49:00;;;;;;;0.47;0.38;;;;;;;;;;4958661;28;20039;-88
2023/12/24 13:51:25;;;;;;;0.70;0.40;;;;;;;;;;4958424;28;20035;-89
2023/12/24 13:53:51;;;;;;;0.85;0.50;;;;;;;;;;4958259;28;20035;-87
2023/12/24 13:56:16;;;;;;;0.52;0.40;;;;;;;;;;4958670;28;20046;-87
2023/12/24 13:58:42;;;;;;;1.65;0.45;;;;;;;;;;4958266;28;20046;-88
2023/12/24 14:01:07;;;;;;;0.70;0.50;;;;;;;;;;4974644;28;20066;-88
2023/12/24 14:03:33;;;;;;;0.82;0.43;;;;;;;;;;4958938;28;20039;-86
2023/12/24 14:05:59;;;;;;;1.50;0.60;;;;;;;;;;4957135;28;20049;-87
2023/12/24 14:08:27;;;;;;;0.77;0.50;;;;;;;;;;4957579;29;20044;-88
2023/12/24 14:10:53;;;;;;;1.50;0.60;;;;;;;;;;4955988;29;20035;-87
2023/12/24 14:13:20;;;;;;;1.20;0.80;;;;;;;;;;4957960;28;20066;-87
2023/12/24 14:15:46;;;;;;;1.38;0.85;;;;;;;;;;4958792;28;20035;-86
2023/12/24 14:18:11;;;;;;;7.28;4.05;;;;;;;;;;4958184;28;20521;-87
2023/12/24 14:20:37;;;;;;;19.17;8.25;;;;;;;;;;4955953;28;20046;-86
2023/12/24 14:23:03;;;;;;;13.35;5.43;;;;;;;;;;4954742;28;20053;-86
2023/12/24 14:25:29;;;;;;;10.25;4.70;;;;;;;;;;4955490;28;20441;-86
2023/12/24 14:27:54;;;;;;;10.10;4.75;;;;;;;;;;4955249;29;20039;-85
2023/12/24 14:30:19;;;;;;;4.35;2.40;;;;;;;;;;4954701;28;20037;-86
2023/12/24 14:32:45;;;;;;;4.07;2.22;;;;;;;;;;4957125;28;20509;-86
2023/12/24 14:35:11;;;;;;;5.13;3.10;;;;;;;;;;4956564;28;20047;-86
2023/12/24 14:37:36;;;;;;;4.95;3.17;;;;;;;;;;4957812;28;20031;-87
2023/12/24 14:40:07;;;;;;;5.88;2.92;;;;;;;;;;4970629;28;20074;-87